Time;durP1;ratioP1;P1;durP2;ratioP2;P2;SDS_P1;SDS_P2;PMS_P1;PMS_P2;Temp;Humidity;BMP_temperature;BMP_pressure;BME280_temperature;BME280_humidity;BME280_pressure;Samples;Min_cycle;Max_cycle;Signal;HPM_P1;HPM_P2
2021/08/22 00:01:08;;;;;;;;;;;;;;;;;;4948764;28;19930;-90
2021/08/22 00:03:37;;;;;;;;;;;;;;;;;;4943379;28;19932;-91
2021/08/22 00:06:05;;;;;;;;;;;;;;;;;;4939111;29;20141;-90
2021/08/22 00:08:33;;;;;;;;;;;;;;;;;;4961221;28;20413;-88
2021/08/22 00:11:02;;;;;;;;;;;;;;;;;;4949391;29;19927;-92
2021/08/22 00:13:30;;;;;;;;;;;;;;;;;;4944863;28;19926;-88
2021/08/22 00:15:58;;;;;;;;;;;;;;;;;;4967418;28;19959;-90
2021/08/22 00:18:28;;;;;;;;;;;;;;;;;;4950175;28;19934;-91
2021/08/22 00:20:56;;;;;;;;;;;;;;;;;;4941631;28;19933;-90
2021/08/22 00:23:24;;;;;;;;;;;;;;;;;;4948364;28;19933;-94
2021/08/22 00:25:52;;;;;;;;;;;;;;;;;;4943429;28;19937;-89
2021/08/22 00:28:21;;;;;;;;;;;;;;;;;;4955553;28;19926;-92
2021/08/22 00:30:49;;;;;;;;;;;;;;;;;;4954276;28;20512;-92
2021/08/22 00:33:17;;;;;;;;;;;;;;;;;;4933182;28;20314;-92
2021/08/22 00:35:47;;;;;;;;;;;;;;;;;;4941084;28;20307;-91
2021/08/22 00:38:15;;;;;;;;;;;;;;;;;;4953500;28;20330;-90
2021/08/22 00:40:44;;;;;;;;;;;;;;;;;;4932306;29;19926;-93
2021/08/22 00:43:12;;;;;;;;;;;;;;;;;;4922871;29;19927;-93
2021/08/22 00:45:42;;;;;;;;;;;;;;;;;;4922561;29;19926;-91
2021/08/22 00:48:12;;;;;;;;;;;;;;;;;;4922732;29;20309;-93
2021/08/22 00:50:40;;;;;;;;;;;;;;;;;;4954217;28;19926;-93
2021/08/22 00:53:10;;;;;;;;;;;;;;;;;;4922456;29;19927;-92
2021/08/22 00:55:38;;;;;;;;;;;;;;;;;;4922843;29;19926;-92
2021/08/22 00:58:06;;;;;;;;;;;;;;;;;;4954433;29;19926;-91
2021/08/22 01:00:36;;;;;;;;;;;;;;;;;;4939428;28;19926;-92
2021/08/22 01:03:10;;;;;;;;;;;;;;;;;;4949615;28;19926;-93
2021/08/22 01:05:41;;;;;;;;;;;;;;;;;;4942835;28;19926;-93
2021/08/22 01:08:14;;;;;;;;;;;;;;;;;;4941458;28;19927;-94
2021/08/22 01:10:42;;;;;;;;;;;;;;;;;;4941598;28;19933;-92
2021/08/22 01:13:12;;;;;;;;;;;;;;;;;;4941465;28;19926;-93
2021/08/22 01:15:41;;;;;;;;;;;;;;;;;;4940675;28;19933;-93
2021/08/22 01:18:09;;;;;;;;;;;;;;;;;;4954602;28;20275;-91
2021/08/22 01:20:38;;;;;;;;;;;;;;;;;;4941512;28;19942;-93
2021/08/22 01:23:06;;;;;;;;;;;;;;;;;;4941970;28;19926;-92
2021/08/22 01:25:37;;;;;;;;;;;;;;;;;;4941479;28;19930;-92
2021/08/22 01:28:06;;;;;;;;;;;;;;;;;;4942012;28;19926;-93
2021/08/22 01:30:37;;;;;;;;;;;;;;;;;;4941900;28;19933;-91
2021/08/22 01:33:08;;;;;;;;;;;;;;;;;;4942860;28;19926;-91
2021/08/22 01:35:41;;;;;;;;;;;;;;;;;;4942352;28;20322;-92
2021/08/22 01:38:09;;;;;;;;;;;;;;;;;;4943656;28;20390;-92
2021/08/22 01:40:38;;;;;;;;;;;;;;;;;;4942478;28;19930;-94
2021/08/22 01:43:06;;;;;;;;;;;;;;;;;;4942008;28;20421;-92
2021/08/22 01:45:35;;;;;;;;;;;;;;;;;;4942249;28;19933;-93
2021/08/22 01:48:04;;;;;;;;;;;;;;;;;;4942750;28;19926;-91
2021/08/22 01:50:34;;;;;;;;;;;;;;;;;;4942546;28;20394;-92
2021/08/22 01:56:18;;;;;;;;;;;;;;;;;;4947793;28;19964;-93
2021/08/22 05:50:58;;;;;;;;;;;;;;;;;;4990054;28;21355;-85
2021/08/22 05:53:29;;;;;;;;;;;;;;;;;;4966054;28;19930;-86
2021/08/22 05:56:17;;;;;;;;;;;;;;;;;;4952375;28;19933;-86
2021/08/22 05:59:12;;;;;;;;;;;;;;;;;;4952804;28;19926;-86
2021/08/22 06:10:16;;;;;;;;;;;;;;;;;;4961805;28;19933;-86
2021/08/22 06:12:58;;;;;;;;;;;;;;;;;;4942889;28;19925;-87
2021/08/22 06:16:27;;;;;;;;;;;;;;;;;;4959076;28;19940;-87
2021/08/22 06:19:28;;;;;;;;;;;;;;;;;;4969044;28;19940;-87
2021/08/22 06:29:35;;;;;;;;;;;;;;;;;;4934449;28;19933;-86
2021/08/22 06:32:39;;;;;;;;;;;;;;;;;;4962003;28;20093;-86
2021/08/22 06:35:53;;;;;;;;;;;;;;;;;;4952241;28;19929;-86
2021/08/22 06:55:17;;;;;;;;;;;;;;;;;;5022178;23;19925;-87
2021/08/22 07:21:04;;;;;;;;;;;;;;;;;;520052;26;20186;-87
2021/08/22 07:28:07;;;;;;;;;;;;;;;;;;4998487;28;20372;-86
2021/08/22 07:31:22;;;;;;;;;;;;;;;;;;5005385;28;19941;-86
2021/08/22 07:34:08;;;;;;;;;;;;;;;;;;4972353;28;19925;-86
2021/08/22 07:36:56;;;;;;;;;;;;;;;;;;4975947;28;20426;-87
2021/08/22 07:43:08;;;;;;;;;;;;;;;;;;5004874;28;19933;-89
2021/08/22 07:45:44;;;;;;;;;;;;;;;;;;4974472;28;19941;-89
2021/08/22 07:48:19;;;;;;;;;;;;;;;;;;4974862;28;19925;-88
2021/08/22 08:12:57;;;;;;;;;;;;;;;;;;5010772;28;19934;-94
2021/08/22 08:15:25;;;;;;;;;;;;;;;;;;4999090;28;19936;-93
2021/08/22 08:17:54;;;;;;;;;;;;;;;;;;5008727;28;19926;-92
2021/08/22 08:20:22;;;;;;;;;;;;;;;;;;4989947;28;19933;-89
2021/08/22 08:22:51;;;;;;;;;;;;;;;;;;4988308;28;19925;-93
2021/08/22 08:25:20;;;;;;;;;;;;;;;;;;5002497;28;19925;-93
2021/08/22 08:27:49;;;;;;;;;;;;;;;;;;5008243;28;19945;-93
2021/08/22 08:30:24;;;;;;;;;;;;;;;;;;4998156;28;19936;-93
2021/08/22 08:32:53;;;;;;;;;;;;;;;;;;5001946;28;19909;-93
2021/08/22 08:35:22;;;;;;;;;;;;;;;;;;5010851;28;19925;-92
2021/08/22 08:37:56;;;;;;;;;;;;;;;;;;5005759;28;19925;-92
2021/08/22 08:40:30;;;;;;;;;;;;;;;;;;5006841;28;19929;-92
2021/08/22 08:43:05;;;;;;;;;;;;;;;;;;5003389;28;20132;-90
2021/08/22 08:45:52;;;;;;;;;;;;;;;;;;5020180;28;19924;-91
2021/08/22 08:48:21;;;;;;;;;;;;;;;;;;4997765;28;19925;-93
2021/08/22 08:50:52;;;;;;;;;;;;;;;;;;4996516;28;19940;-93
2021/08/22 08:53:20;;;;;;;;;;;;;;;;;;4990694;28;19933;-93
2021/08/22 08:55:51;;;;;;;;;;;;;;;;;;5007651;28;19933;-92
2021/08/22 08:58:19;;;;;;;;;;;;;;;;;;5008135;28;19926;-92
2021/08/22 09:00:47;;;;;;;;;;;;;;;;;;4995200;28;19933;-90
2021/08/22 09:03:19;;;;;;;;;;;;;;;;;;4993412;28;19929;-92
2021/08/22 09:06:05;;;;;;;;;;;;;;;;;;4993283;28;19936;-91
2021/08/22 09:09:07;;;;;;;;;;;;;;;;;;4992963;28;19925;-89
2021/08/22 09:12:08;;;;;;;;;;;;;;;;;;4941083;28;19934;-94
2021/08/22 09:14:54;;;;;;;;;;;;;;;;;;4876223;29;19931;-94
2021/08/22 09:17:41;;;;;;;;;;;;;;;;;;4924669;28;19930;-93
2021/08/22 09:20:28;;;;;;;;;;;;;;;;;;4985100;28;20389;-92
2021/08/22 09:23:18;;;;;;;;;;;;;;;;;;4991266;28;22222;-93
2021/08/22 09:26:07;;;;;;;;;;;;;;;;;;5010381;28;19925;-93
2021/08/22 09:29:00;;;;;;;;;;;;;;;;;;4998502;28;19925;-92
2021/08/22 09:31:55;;;;;;;;;;;;;;;;;;5001634;28;19925;-94
2021/08/22 09:34:42;;;;;;;;;;;;;;;;;;4993713;28;19933;-94
2021/08/22 09:37:32;;;;;;;;;;;;;;;;;;5005356;28;19929;-94
2021/08/22 09:40:20;;;;;;;;;;;;;;;;;;4998588;28;20300;-93
2021/08/22 09:43:15;;;;;;;;;;;;;;;;;;5009977;28;20443;-95
2021/08/22 09:46:07;;;;;;;;;;;;;;;;;;5002862;28;19936;-94
2021/08/22 09:48:55;;;;;;;;;;;;;;;;;;5020854;28;21213;-95
2021/08/22 09:51:50;;;;;;;;;;;;;;;;;;5008580;28;19928;-94
2021/08/22 09:54:37;;;;;;;;;;;;;;;;;;4947260;28;19933;-96
2021/08/22 09:57:24;;;;;;;;;;;;;;;;;;5001034;28;19936;-94
2021/08/22 10:00:10;;;;;;;;;;;;;;;;;;4958193;28;19925;-94
2021/08/22 10:02:56;;;;;;;;;;;;;;;;;;5002336;28;21406;-93
2021/08/22 10:05:30;;;;;;;;;;;;;;;;;;4986004;28;19929;-94
2021/08/22 10:08:24;;;;;;;;;;;;;;;;;;4998943;28;19925;-94
2021/08/22 10:10:53;;;;;;;;;;;;;;;;;;4984875;28;19925;-92
2021/08/22 10:13:32;;;;;;;;;;;;;;;;;;4991427;28;20396;-92
2021/08/22 10:16:03;;;;;;;;;;;;;;;;;;4998340;28;19929;-91
2021/08/22 10:18:34;;;;;;;;;;;;;;;;;;4995396;28;19932;-94
2021/08/22 10:21:07;;;;;;;;;;;;;;;;;;5014491;28;20325;-92
2021/08/22 10:23:47;;;;;;;;;;;;;;;;;;4993508;28;19932;-91
2021/08/22 10:26:36;;;;;;;;;;;;;;;;;;4975320;28;20285;-91
2021/08/22 10:29:04;;;;;;;;;;;;;;;;;;4968360;28;20320;-90
2021/08/22 10:31:58;;;;;;;;;;;;;;;;;;4981574;28;19933;-91
2021/08/22 10:34:26;;;;;;;;;;;;;;;;;;4965094;28;19932;-92
2021/08/22 10:36:56;;;;;;;;;;;;;;;;;;4983009;28;19925;-92
2021/08/22 10:39:30;;;;;;;;;;;;;;;;;;5002765;28;19929;-92
2021/08/22 10:41:58;;;;;;;;;;;;;;;;;;4994218;28;19925;-92
2021/08/22 10:44:39;;;;;;;;;;;;;;;;;;5007988;28;19931;-92
2021/08/22 10:47:08;;;;;;;;;;;;;;;;;;4978745;28;19934;-90
2021/08/22 10:49:55;;;;;;;;;;;;;;;;;;5014543;28;19943;-89
2021/08/22 10:52:25;;;;;;;;;;;;;;;;;;5020369;28;19925;-92
2021/08/22 10:55:13;;;;;;;;;;;;;;;;;;4990048;28;19932;-90
2021/08/22 10:57:51;;;;;;;;;;;;;;;;;;4996306;28;20297;-92
2021/08/22 11:00:20;;;;;;;;;;;;;;;;;;5026492;28;19933;-91
2021/08/22 11:02:49;;;;;;;;;;;;;;;;;;4981895;28;20306;-91
2021/08/22 11:08:37;;;;;;;;;;;;;;;;;;4983902;28;20297;-91
2021/08/22 11:14:21;;;;;;;;;;;;;;;;;;5001308;28;19940;-90
2021/08/22 11:16:49;;;;;;;;;;;;;;;;;;5019190;28;19932;-93
2021/08/22 11:19:18;;;;;;;;;;;;;;;;;;5005425;28;19936;-93
2021/08/22 11:21:46;;;;;;;;;;;;;;;;;;4998936;28;19932;-94
2021/08/22 11:24:16;;;;;;;;;;;;;;;;;;5001642;28;19925;-94
2021/08/22 11:26:44;;;;;;;;;;;;;;;;;;5001658;28;19940;-93
2021/08/22 11:29:35;;;;;;;;;;;;;;;;;;5005507;28;19925;-95
2021/08/22 11:32:19;;;;;;;;;;;;;;;;;;5008708;28;19940;-94
2021/08/22 11:34:56;;;;;;;;;;;;;;;;;;5009273;28;19929;-93
2021/08/22 11:37:29;;;;;;;;;;;;;;;;;;5000538;28;19944;-94
2021/08/22 11:40:15;;;;;;;;;;;;;;;;;;5012412;28;19929;-95
2021/08/22 11:42:52;;;;;;;;;;;;;;;;;;4999603;28;19932;-93
2021/08/22 11:45:47;;;;;;;;;;;;;;;;;;5012626;28;19929;-94
2021/08/22 11:48:47;;;;;;;;;;;;;;;;;;4996739;28;19925;-94
2021/08/22 11:51:17;;;;;;;;;;;;;;;;;;4991303;28;19932;-92
2021/08/22 11:53:45;;;;;;;;;;;;;;;;;;4983651;28;19929;-92
2021/08/22 12:09:01;;;;;;;;;;;;;;;;;;4943618;28;19938;-93
2021/08/22 12:11:32;;;;;;;;;;;;;;;;;;4935167;28;19965;-92
2021/08/22 12:14:13;;;;;;;;;;;;;;;;;;4912827;28;19941;-93
2021/08/22 12:16:42;;;;;;;;;;;;;;;;;;4916659;29;19966;-91
2021/08/22 12:19:17;;;;;;;;;;;;;;;;;;4896223;28;20481;-91
2021/08/22 12:21:45;;;;;;;;;;;;;;;;;;4902374;28;19934;-93
2021/08/22 12:24:21;;;;;;;;;;;;;;;;;;4908332;28;20433;-90
2021/08/22 12:26:50;;;;;;;;;;;;;;;;;;4928758;28;19930;-92
2021/08/22 12:29:18;;;;;;;;;;;;;;;;;;4926551;28;20338;-92
2021/08/22 12:31:48;;;;;;;;;;;;;;;;;;4925427;28;19934;-94
2021/08/22 12:34:17;;;;;;;;;;;;;;;;;;4916283;28;20034;-92
2021/08/22 12:36:46;;;;;;;;;;;;;;;;;;4943668;28;19933;-92
2021/08/22 12:39:15;;;;;;;;;;;;;;;;;;4988487;28;20143;-92
2021/08/22 12:41:46;;;;;;;;;;;;;;;;;;5016646;28;20464;-93
2021/08/22 12:44:17;;;;;;;;;;;;;;;;;;4998382;28;19940;-93
2021/08/22 12:46:46;;;;;;;;;;;;;;;;;;5001048;28;19930;-92
2021/08/22 12:49:16;;;;;;;;;;;;;;;;;;4999939;28;19940;-92
2021/08/22 12:51:48;;;;;;;;;;;;;;;;;;5001655;28;19929;-93
2021/08/22 12:54:16;;;;;;;;;;;;;;;;;;5002937;28;19928;-92
2021/08/22 12:56:46;;;;;;;;;;;;;;;;;;4991897;28;19934;-92
2021/08/22 12:59:14;;;;;;;;;;;;;;;;;;4989212;28;20230;-91
2021/08/22 13:01:43;;;;;;;;;;;;;;;;;;4983362;28;19932;-94
2021/08/22 13:04:16;;;;;;;;;;;;;;;;;;4980275;28;19949;-96
2021/08/22 13:06:47;;;;;;;;;;;;;;;;;;4992794;28;19928;-93
2021/08/22 13:09:17;;;;;;;;;;;;;;;;;;5005799;28;20396;-92
2021/08/22 13:11:47;;;;;;;;;;;;;;;;;;4993973;28;20389;-93
2021/08/22 13:14:15;;;;;;;;;;;;;;;;;;4988233;28;19928;-91
2021/08/22 13:16:43;;;;;;;;;;;;;;;;;;5004529;28;19933;-91
2021/08/22 13:19:12;;;;;;;;;;;;;;;;;;4986937;28;19930;-92
2021/08/22 13:21:40;;;;;;;;;;;;;;;;;;4990611;28;19925;-92
2021/08/22 13:24:08;;;;;;;;;;;;;;;;;;4989532;28;20308;-92
2021/08/22 13:26:38;;;;;;;;;;;;;;;;;;5010493;28;19925;-94
2021/08/22 13:29:08;;;;;;;;;;;;;;;;;;4999945;28;19933;-91
2021/08/22 13:31:36;;;;;;;;;;;;;;;;;;5005434;28;19932;-92
2021/08/22 13:34:22;;;;;;;;;;;;;;;;;;4993903;28;19929;-91
2021/08/22 13:37:02;;;;;;;;;;;;;;;;;;5004731;28;19933;-91
2021/08/22 13:39:37;;;;;;;;;;;;;;;;;;4983575;28;19941;-91
2021/08/22 13:42:05;;;;;;;;;;;;;;;;;;5004235;28;19930;-90
2021/08/22 13:44:38;;;;;;;;;;;;;;;;;;4988858;28;20389;-91
2021/08/22 13:47:07;;;;;;;;;;;;;;;;;;4991015;28;19929;-88
2021/08/22 13:49:35;;;;;;;;;;;;;;;;;;4990500;28;19940;-91
2021/08/22 13:52:03;;;;;;;;;;;;;;;;;;4975716;28;19932;-91
2021/08/22 13:54:32;;;;;;;;;;;;;;;;;;4981774;28;19929;-89
2021/08/22 13:57:00;;;;;;;;;;;;;;;;;;4984286;28;19941;-91
2021/08/22 13:59:28;;;;;;;;;;;;;;;;;;4994277;28;19936;-89
2021/08/22 14:01:58;;;;;;;;;;;;;;;;;;4997289;28;19929;-88
2021/08/22 14:04:26;;;;;;;;;;;;;;;;;;5016101;28;19937;-89
2021/08/22 14:06:54;;;;;;;;;;;;;;;;;;4989043;28;19933;-89
2021/08/22 14:09:22;;;;;;;;;;;;;;;;;;4989554;28;19932;-88
2021/08/22 14:11:50;;;;;;;;;;;;;;;;;;5000467;28;19932;-88
2021/08/22 14:14:18;;;;;;;;;;;;;;;;;;4976112;28;19929;-89
2021/08/22 14:16:47;;;;;;;;;;;;;;;;;;4994887;28;20038;-87
2021/08/22 14:19:16;;;;;;;;;;;;;;;;;;5006028;28;20428;-87
2021/08/22 14:21:44;;;;;;;;;;;;;;;;;;4985140;28;19929;-88
2021/08/22 14:24:12;;;;;;;;;;;;;;;;;;5007250;28;19940;-87
2021/08/22 14:26:41;;;;;;;;;;;;;;;;;;5005565;28;19925;-88
2021/08/22 14:29:09;;;;;;;;;;;;;;;;;;5020213;28;20304;-88
2021/08/22 14:31:37;;;;;;;;;;;;;;;;;;5011720;28;19933;-90
2021/08/22 14:34:10;;;;;;;;;;;;;;;;;;5008014;28;20257;-90
2021/08/22 14:36:39;;;;;;;;;;;;;;;;;;5006063;28;20038;-92
2021/08/22 14:39:07;;;;;;;;;;;;;;;;;;5011437;28;19933;-90
2021/08/22 14:41:36;;;;;;;;;;;;;;;;;;5018148;28;19925;-90
2021/08/22 14:44:04;;;;;;;;;;;;;;;;;;5001614;28;19925;-90
2021/08/22 14:46:32;;;;;;;;;;;;;;;;;;5029794;28;19912;-89
2021/08/22 14:49:01;;;;;;;;;;;;;;;;;;5028137;28;19914;-89
2021/08/22 14:51:35;;;;;;;;;;;;;;;;;;5031365;28;19927;-93
2021/08/22 14:54:04;;;;;;;;;;;;;;;;;;5017861;28;20409;-87
2021/08/22 14:56:32;;;;;;;;;;;;;;;;;;5035654;28;19915;-91
2021/08/22 14:59:01;;;;;;;;;;;;;;;;;;5013544;28;19913;-88
2021/08/22 15:01:29;;;;;;;;;;;;;;;;;;5020647;28;19915;-89
2021/08/22 15:03:57;;;;;;;;;;;;;;;;;;5001429;28;20012;-93
2021/08/22 15:06:25;;;;;;;;;;;;;;;;;;5007439;28;20341;-90
2021/08/22 15:08:54;;;;;;;;;;;;;;;;;;4996565;28;19932;-89
2021/08/22 15:11:23;;;;;;;;;;;;;;;;;;4993971;28;20294;-88
2021/08/22 15:13:52;;;;;;;;;;;;;;;;;;5007269;28;19926;-88
2021/08/22 15:16:20;;;;;;;;;;;;;;;;;;4995874;28;19925;-89
2021/08/22 15:18:48;;;;;;;;;;;;;;;;;;4998089;28;19975;-93
2021/08/22 15:21:17;;;;;;;;;;;;;;;;;;4997510;28;19929;-91
2021/08/22 15:23:45;;;;;;;;;;;;;;;;;;5040105;28;19948;-89
2021/08/22 15:26:14;;;;;;;;;;;;;;;;;;5017307;28;19921;-89
2021/08/22 15:28:43;;;;;;;;;;;;;;;;;;5035007;28;19932;-89
2021/08/22 15:31:12;;;;;;;;;;;;;;;;;;5047210;28;19931;-91
2021/08/22 15:33:41;;;;;;;;;;;;;;;;;;5030602;28;19935;-90
2021/08/22 15:36:09;;;;;;;;;;;;;;;;;;5016139;28;19920;-87
2021/08/22 15:38:38;;;;;;;;;;;;;;;;;;5011028;28;20168;-89
2021/08/22 15:41:06;;;;;;;;;;;;;;;;;;5013037;28;19929;-86
2021/08/22 15:43:36;;;;;;;;;;;;;;;;;;5009873;28;19925;-91
2021/08/22 15:46:06;;;;;;;;;;;;;;;;;;4991129;28;19931;-88
2021/08/22 15:48:35;;;;;;;;;;;;;;;;;;5000999;28;19932;-92
2021/08/22 15:51:04;;;;;;;;;;;;;;;;;;4999726;28;19925;-92
2021/08/22 15:53:38;;;;;;;;;;;;;;;;;;5001975;28;20332;-90
2021/08/22 16:00:50;;;;;;;;;;;;;;;;;;5016043;28;19929;-90
2021/08/22 16:16:07;;;;;;;;;;;;;;;;;;4954938;28;19933;-89
2021/08/22 16:18:35;;;;;;;;;;;;;;;;;;4973288;28;19930;-86
2021/08/22 16:21:03;;;;;;;;;;;;;;;;;;4952248;28;19930;-91
2021/08/22 16:23:32;;;;;;;;;;;;;;;;;;4952851;28;19930;-89
2021/08/22 16:26:00;;;;;;;;;;;;;;;;;;4970745;28;19926;-88
2021/08/22 16:28:28;;;;;;;;;;;;;;;;;;4931933;28;20012;-85
2021/08/22 16:30:56;;;;;;;;;;;;;;;;;;4927458;28;19937;-88
2021/08/22 16:33:26;;;;;;;;;;;;;;;;;;4939013;28;20440;-87
2021/08/22 16:35:54;;;;;;;;;;;;;;;;;;4937902;28;19933;-87
2021/08/22 16:38:23;;;;;;;;;;;;;;;;;;4944578;28;20514;-89
2021/08/22 16:40:51;;;;;;;;;;;;;;;;;;4928492;28;19934;-89
2021/08/22 16:43:19;;;;;;;;;;;;;;;;;;4947910;28;19941;-90
2021/08/22 16:45:48;;;;;;;;;;;;;;;;;;4930218;28;19926;-88
2021/08/22 16:48:17;;;;;;;;;;;;;;;;;;4921681;28;19934;-88
2021/08/22 16:50:47;;;;;;;;;;;;;;;;;;4941116;28;19930;-91
2021/08/22 16:53:15;;;;;;;;;;;;;;;;;;4920138;28;20405;-90
2021/08/22 16:55:43;;;;;;;;;;;;;;;;;;4929771;28;20008;-92
2021/08/22 16:58:11;;;;;;;;;;;;;;;;;;4933917;28;19930;-91
2021/08/22 17:00:40;;;;;;;;;;;;;;;;;;4930110;28;19934;-88
2021/08/22 17:03:09;;;;;;;;;;;;;;;;;;4939207;28;19934;-88
2021/08/22 17:05:38;;;;;;;;;;;;;;;;;;4932140;28;20312;-90
2021/08/22 17:08:08;;;;;;;;;;;;;;;;;;4940836;28;20423;-89
2021/08/22 17:10:36;;;;;;;;;;;;;;;;;;4934206;28;20057;-90
2021/08/22 17:13:05;;;;;;;;;;;;;;;;;;4936015;28;20353;-89
2021/08/22 17:15:33;;;;;;;;;;;;;;;;;;4940382;28;19926;-91
2021/08/22 17:18:03;;;;;;;;;;;;;;;;;;4938796;28;19941;-92
2021/08/22 17:20:32;;;;;;;;;;;;;;;;;;4934053;28;19926;-93
2021/08/22 17:23:00;;;;;;;;;;;;;;;;;;4926160;28;19934;-91
2021/08/22 17:25:30;;;;;;;;;;;;;;;;;;4949549;28;19927;-90
2021/08/22 17:27:59;;;;;;;;;;;;;;;;;;4942869;28;20304;-88
2021/08/22 17:30:27;;;;;;;;;;;;;;;;;;4935081;28;20315;-90
2021/08/22 17:32:56;;;;;;;;;;;;;;;;;;4939689;28;19930;-90
2021/08/22 17:35:24;;;;;;;;;;;;;;;;;;4955814;28;19933;-91
2021/08/22 17:37:53;;;;;;;;;;;;;;;;;;4956540;28;19934;-89
2021/08/22 17:40:22;;;;;;;;;;;;;;;;;;4948433;28;19927;-93
2021/08/22 17:42:52;;;;;;;;;;;;;;;;;;4929816;28;19946;-90
2021/08/22 17:45:21;;;;;;;;;;;;;;;;;;4942151;28;19926;-91
2021/08/22 17:47:50;;;;;;;;;;;;;;;;;;4960058;28;20281;-88
2021/08/22 17:50:22;;;;;;;;;;;;;;;;;;4942249;28;19937;-89
2021/08/22 17:52:50;;;;;;;;;;;;;;;;;;4942268;28;19941;-89
2021/08/22 17:55:18;;;;;;;;;;;;;;;;;;4924553;28;19926;-89
2021/08/22 17:57:47;;;;;;;;;;;;;;;;;;4936852;28;19933;-91
2021/08/22 18:00:18;;;;;;;;;;;;;;;;;;4938648;28;19937;-88
2021/08/22 18:02:46;;;;;;;;;;;;;;;;;;4938475;28;19933;-88
2021/08/22 18:05:15;;;;;;;;;;;;;;;;;;4927147;28;19937;-87
2021/08/22 18:07:43;;;;;;;;;;;;;;;;;;4929012;28;19930;-91
2021/08/22 18:10:13;;;;;;;;;;;;;;;;;;4936113;28;19926;-91
2021/08/22 18:12:41;;;;;;;;;;;;;;;;;;4938506;28;19937;-89
2021/08/22 18:15:10;;;;;;;;;;;;;;;;;;4921915;28;20388;-88
2021/08/22 18:17:40;;;;;;;;;;;;;;;;;;4936727;28;19930;-91
2021/08/22 18:20:09;;;;;;;;;;;;;;;;;;4925883;28;19926;-90
2021/08/22 18:22:38;;;;;;;;;;;;;;;;;;4939809;28;19934;-89
2021/08/22 18:25:07;;;;;;;;;;;;;;;;;;4935938;28;19926;-89
2021/08/22 18:27:37;;;;;;;;;;;;;;;;;;4935992;28;19926;-90
2021/08/22 18:30:06;;;;;;;;;;;;;;;;;;4922834;28;19930;-89
2021/08/22 18:32:34;;;;;;;;;;;;;;;;;;4940920;28;19930;-89
2021/08/22 18:35:08;;;;;;;;;;;;;;;;;;4924122;28;19926;-87
2021/08/22 18:37:36;;;;;;;;;;;;;;;;;;4922216;28;19933;-89
2021/08/22 18:40:05;;;;;;;;;;;;;;;;;;4924001;28;19934;-89
2021/08/22 18:42:35;;;;;;;;;;;;;;;;;;4923471;28;19933;-91
2021/08/22 18:45:04;;;;;;;;;;;;;;;;;;4938757;28;20217;-90
2021/08/22 18:47:32;;;;;;;;;;;;;;;;;;4936865;28;19926;-90
2021/08/22 18:50:01;;;;;;;;;;;;;;;;;;4947038;28;19926;-88
2021/08/22 18:52:30;;;;;;;;;;;;;;;;;;4955683;28;19922;-87
2021/08/22 18:54:58;;;;;;;;;;;;;;;;;;4953165;28;19926;-87
2021/08/22 18:57:27;;;;;;;;;;;;;;;;;;4940974;28;19934;-87
2021/08/22 18:59:55;;;;;;;;;;;;;;;;;;4953777;28;19930;-85
2021/08/22 19:02:23;;;;;;;;;;;;;;;;;;4948728;28;20052;-84
2021/08/22 19:04:52;;;;;;;;;;;;;;;;;;4940497;28;19941;-87
2021/08/22 19:07:20;;;;;;;;;;;;;;;;;;4939838;28;20309;-86
2021/08/22 19:09:49;;;;;;;;;;;;;;;;;;4954913;28;20415;-88
2021/08/22 19:12:18;;;;;;;;;;;;;;;;;;4955782;28;19938;-88
2021/08/22 19:14:46;;;;;;;;;;;;;;;;;;4931458;28;19926;-89
2021/08/22 19:17:14;;;;;;;;;;;;;;;;;;4940205;28;19930;-88
2021/08/22 19:19:43;;;;;;;;;;;;;;;;;;4937047;28;19948;-89
2021/08/22 19:22:11;;;;;;;;;;;;;;;;;;4952926;28;20328;-89
2021/08/22 19:24:40;;;;;;;;;;;;;;;;;;4964462;28;19934;-89
2021/08/22 19:27:09;;;;;;;;;;;;;;;;;;4958678;28;19938;-86
2021/08/22 19:29:38;;;;;;;;;;;;;;;;;;4940917;28;19926;-86
2021/08/22 19:32:06;;;;;;;;;;;;;;;;;;4930864;28;19934;-88
2021/08/22 19:34:35;;;;;;;;;;;;;;;;;;4931516;28;20330;-88
2021/08/22 19:37:20;;;;;;;;;;;;;;;;;;4922404;28;19957;-89
2021/08/22 19:41:19;;;;;;;;;;;;;;;;;;4956605;28;19949;-88
2021/08/22 19:43:49;;;;;;;;;;;;;;;;;;4942256;28;19926;-86
2021/08/22 19:46:18;;;;;;;;;;;;;;;;;;4956108;28;19926;-88
2021/08/22 19:48:46;;;;;;;;;;;;;;;;;;4931312;28;20299;-88
2021/08/22 19:51:14;;;;;;;;;;;;;;;;;;4940206;28;19926;-89
2021/08/22 19:53:43;;;;;;;;;;;;;;;;;;4956392;28;19927;-88
2021/08/22 19:56:15;;;;;;;;;;;;;;;;;;4941825;28;19934;-88
2021/08/22 19:58:45;;;;;;;;;;;;;;;;;;4933032;28;19926;-89
2021/08/22 20:01:14;;;;;;;;;;;;;;;;;;4929475;28;20301;-89
2021/08/22 20:03:43;;;;;;;;;;;;;;;;;;4926108;28;20581;-89
2021/08/22 20:06:11;;;;;;;;;;;;;;;;;;4926721;28;19927;-89
2021/08/22 20:08:40;;;;;;;;;;;;;;;;;;4931871;28;19934;-87
2021/08/22 20:11:09;;;;;;;;;;;;;;;;;;4927551;28;19926;-88
2021/08/22 20:13:37;;;;;;;;;;;;;;;;;;4947630;28;19926;-89
2021/08/22 20:16:07;;;;;;;;;;;;;;;;;;4939007;28;19928;-88
2021/08/22 20:18:37;;;;;;;;;;;;;;;;;;4927774;28;19938;-88
2021/08/22 20:21:05;;;;;;;;;;;;;;;;;;4931427;28;20126;-87
2021/08/22 20:23:34;;;;;;;;;;;;;;;;;;4942878;28;19930;-88
2021/08/22 20:26:02;;;;;;;;;;;;;;;;;;4961107;28;19926;-89
2021/08/22 20:28:30;;;;;;;;;;;;;;;;;;4938935;28;19977;-88
2021/08/22 20:30:59;;;;;;;;;;;;;;;;;;4958717;28;19933;-87
2021/08/22 20:33:28;;;;;;;;;;;;;;;;;;4945023;28;19926;-87
2021/08/22 20:35:58;;;;;;;;;;;;;;;;;;4943630;28;20052;-86
2021/08/22 20:38:26;;;;;;;;;;;;;;;;;;4943154;28;20005;-88
2021/08/22 20:40:55;;;;;;;;;;;;;;;;;;4955917;28;19927;-88
2021/08/22 20:43:23;;;;;;;;;;;;;;;;;;4937050;28;19926;-89
2021/08/22 20:45:51;;;;;;;;;;;;;;;;;;4943778;28;19935;-88
2021/08/22 20:48:20;;;;;;;;;;;;;;;;;;4936649;28;19945;-88
2021/08/22 20:50:48;;;;;;;;;;;;;;;;;;4942038;28;20250;-87
2021/08/22 20:53:18;;;;;;;;;;;;;;;;;;4928097;28;19934;-86
2021/08/22 20:55:46;;;;;;;;;;;;;;;;;;4944057;28;19926;-88
2021/08/22 20:58:14;;;;;;;;;;;;;;;;;;4943221;28;19926;-88
2021/08/22 21:00:43;;;;;;;;;;;;;;;;;;4962669;28;20422;-86
2021/08/22 21:03:11;;;;;;;;;;;;;;;;;;4925493;28;19929;-88
2021/08/22 21:05:40;;;;;;;;;;;;;;;;;;4923360;28;20374;-87
2021/08/22 21:08:09;;;;;;;;;;;;;;;;;;4933802;28;19934;-88
2021/08/22 21:10:39;;;;;;;;;;;;;;;;;;4940938;28;19933;-89
2021/08/22 21:13:07;;;;;;;;;;;;;;;;;;4937130;28;20399;-86
2021/08/22 21:15:35;;;;;;;;;;;;;;;;;;4925844;28;19934;-88
2021/08/22 21:18:06;;;;;;;;;;;;;;;;;;4936838;28;20393;-85
2021/08/22 21:20:34;;;;;;;;;;;;;;;;;;4939794;28;19930;-87
2021/08/22 21:23:03;;;;;;;;;;;;;;;;;;4922041;28;19926;-88
2021/08/22 21:25:32;;;;;;;;;;;;;;;;;;4940672;28;19942;-89
2021/08/22 21:28:01;;;;;;;;;;;;;;;;;;4942718;28;19941;-88
2021/08/22 21:30:29;;;;;;;;;;;;;;;;;;4924750;28;19937;-87
2021/08/22 21:32:58;;;;;;;;;;;;;;;;;;4917597;28;19927;-88
2021/08/22 21:35:26;;;;;;;;;;;;;;;;;;4922646;28;19934;-88
2021/08/22 21:37:55;;;;;;;;;;;;;;;;;;4945259;28;19934;-88
2021/08/22 21:40:24;;;;;;;;;;;;;;;;;;4941633;28;19933;-88
2021/08/22 21:42:52;;;;;;;;;;;;;;;;;;4921457;28;19934;-86
2021/08/22 21:45:22;;;;;;;;;;;;;;;;;;4955962;28;19933;-88
2021/08/22 21:47:51;;;;;;;;;;;;;;;;;;4966498;28;20859;-86
2021/08/22 21:50:19;;;;;;;;;;;;;;;;;;4970381;28;19934;-87
2021/08/22 21:52:47;;;;;;;;;;;;;;;;;;4950685;28;19941;-86
2021/08/22 21:55:16;;;;;;;;;;;;;;;;;;4945989;28;19926;-88
2021/08/22 21:57:44;;;;;;;;;;;;;;;;;;4942908;28;19926;-87
2021/08/22 22:00:15;;;;;;;;;;;;;;;;;;4925565;28;19930;-88
2021/08/22 22:02:46;;;;;;;;;;;;;;;;;;4932990;28;19926;-88
2021/08/22 22:05:15;;;;;;;;;;;;;;;;;;4936047;28;19933;-88
2021/08/22 22:07:43;;;;;;;;;;;;;;;;;;4953938;28;19926;-88
2021/08/22 22:10:11;;;;;;;;;;;;;;;;;;4936919;28;19934;-87
2021/08/22 22:12:40;;;;;;;;;;;;;;;;;;4931689;28;19930;-87
2021/08/22 22:15:08;;;;;;;;;;;;;;;;;;4935743;28;20392;-87
2021/08/22 22:17:37;;;;;;;;;;;;;;;;;;4934828;28;20320;-87
2021/08/22 22:20:07;;;;;;;;;;;;;;;;;;4938358;28;20312;-86
2021/08/22 22:22:40;;;;;;;;;;;;;;;;;;4938077;28;19930;-87
2021/08/22 22:25:08;;;;;;;;;;;;;;;;;;4944163;28;19930;-87
2021/08/22 22:27:37;;;;;;;;;;;;;;;;;;4935383;28;19926;-87
2021/08/22 22:30:06;;;;;;;;;;;;;;;;;;4958729;28;19934;-87
2021/08/22 22:32:34;;;;;;;;;;;;;;;;;;4946905;28;19926;-87
2021/08/22 22:35:02;;;;;;;;;;;;;;;;;;4951765;28;19926;-86
2021/08/22 22:37:32;;;;;;;;;;;;;;;;;;4938668;28;19956;-87
2021/08/22 22:40:00;;;;;;;;;;;;;;;;;;4940044;28;20187;-84
2021/08/22 22:42:29;;;;;;;;;;;;;;;;;;4945758;28;19927;-86
2021/08/22 22:44:58;;;;;;;;;;;;;;;;;;4939942;28;19934;-86
2021/08/22 22:47:26;;;;;;;;;;;;;;;;;;4926918;28;20073;-87
2021/08/22 22:49:54;;;;;;;;;;;;;;;;;;4933382;28;19930;-87
2021/08/22 22:52:22;;;;;;;;;;;;;;;;;;4956714;28;19930;-87
2021/08/22 22:54:53;;;;;;;;;;;;;;;;;;4948559;28;19926;-87
2021/08/22 22:57:21;;;;;;;;;;;;;;;;;;4945118;28;19930;-87
2021/08/22 22:59:49;;;;;;;;;;;;;;;;;;4945225;28;19941;-88
2021/08/22 23:02:18;;;;;;;;;;;;;;;;;;4929647;28;22919;-87
2021/08/22 23:04:46;;;;;;;;;;;;;;;;;;4950377;28;19937;-87
2021/08/22 23:07:14;;;;;;;;;;;;;;;;;;4948682;28;19927;-88
2021/08/22 23:09:43;;;;;;;;;;;;;;;;;;4946777;28;20292;-87
2021/08/22 23:12:12;;;;;;;;;;;;;;;;;;4942429;28;20380;-84
2021/08/22 23:14:41;;;;;;;;;;;;;;;;;;4971100;28;19933;-87
2021/08/22 23:17:09;;;;;;;;;;;;;;;;;;4936012;28;20381;-86